Portada
METAR-TAF:

METAR-TAF

Aeroports :

Agartala, Índia

latitud: 23-53-24N, longitud: 91-14-32E, altitud: 14 m

Observació

L'informe es va fer fa 42 minuts, a les 07:00 UTC
Vent 4 kt del Nord/Nord-Oest
Temperatura 24°C
Humitat 38%
Pressió 1018 hPa
Visibilitat: 4500 m
calitja

METAR: VEAT 220700Z 34004KT 4500 HZ NSC 24/09 Q1018 NOSIG

Hora: 13:12 (07:42 UTC)

Pronòstic

L'informe es va fer fa 2 hores i 42 minuts, a les 05:00 UTC
Pronòstic vàlid del 22 a les 06 UTC al 22 a les 15 UTC
Vent kt del Nord
Visibilitat: 3000 m
calitja
Evolucionant progressivament
l' 22 a les 08 UTC al 22 a les 10 UTC
Visibilitat: 5000 m
calitja

TAF: VEAT 220500Z 2206/2215 00000KT 3000 HZ NSC BECMG 2208/2210 5000 HZ

Observacions i pronòstics meteorològics de més de 4000 aeroports (METAR i TAF).

Les estacions disponibles són els punts grocs i vermells al mapa.

Posi el ratolí al punt desitjat per veure el nom de l'estació.

Feu clic per veure les observacions i els pronòstics meteorològics.

Per canviar el mapa: feu clic els botons verds amb una creu de color negre per apropar; al botó verd amb un guió per allunyar la imatge; o en les fletxes verdes per a mapes adjacents.


METAR-TAF: